Flight Track Log - Related Links

Times and Time Zones

All times are in EDT time to prevent confusion due to time zone crossing. See the AFL104 flight status page for this flight to view local times or setup timezone preferences in your user account.

Time Position Orientation Groundspeed Altitude Reporting Facility
EDT Latitude Longitude Course Direction KTS MPH feet Rate Location/Type
Thu 02:56:00 AM 56.1615 37.0950 313° West  Level FlightAware Approximate
Thu 02:57:00 AM 56.2373 36.9447 312° West  Level FlightAware Approximate
Thu 02:58:00 AM 56.3130 36.7939 312° West  Level FlightAware Approximate
Thu 02:59:00 AM 56.3885 36.6425 312° West  Level FlightAware Approximate
Thu 03:00:00 AM 56.4638 36.4905 312° West  Level FlightAware Approximate
Thu 03:01:00 AM 56.5389 36.3378 312° West  Level FlightAware Approximate
Thu 03:02:00 AM 56.6138 36.1846 312° West  Level FlightAware Approximate
Thu 03:03:00 AM 56.6886 36.0307 312° West  Level FlightAware Approximate
Thu 03:04:00 AM 56.7631 35.8763 311° West  Level FlightAware Approximate
Thu 03:05:00 AM 56.8375 35.7212 311° West  Level FlightAware Approximate
Thu 03:06:00 AM 56.9116 35.5655 311° West  Level FlightAware Approximate
Thu 03:07:00 AM 56.9856 35.4092 311° West  Level FlightAware Approximate
Thu 03:08:00 AM 57.0594 35.2523 311° West  Level FlightAware Approximate
Thu 03:09:00 AM 57.1329 35.0948 311° West  Level FlightAware Approximate
Thu 03:10:00 AM 57.2063 34.9366 311° West  Level FlightAware Approximate
Thu 03:11:00 AM 57.2795 34.7778 310° West  Level FlightAware Approximate
Thu 03:12:00 AM 57.3525 34.6184 310° West  Level FlightAware Approximate
Thu 03:13:00 AM 57.4252 34.4583 310° West  Level FlightAware Approximate
Thu 03:14:00 AM 57.4978 34.2976 310° West  Level FlightAware Approximate
Thu 03:15:00 AM 57.5164 34.2498 308° West  Level FlightAware Approximate
Thu 03:16:00 AM 57.5863 34.0846 308° West  Level FlightAware Approximate
Thu 03:17:00 AM 57.6559 33.9188 308° West  Level FlightAware Approximate
Thu 03:18:00 AM 57.7254 33.7523 308° West  Level FlightAware Approximate
Thu 03:19:00 AM 57.7946 33.5853 308° West  Level FlightAware Approximate
Thu 03:20:00 AM 57.8636 33.4175 308° West  Level FlightAware Approximate
Thu 03:21:00 AM 57.9324 33.2491 308° West  Level FlightAware Approximate
Thu 03:22:00 AM 58.0010 33.0801 307° West  Level FlightAware Approximate
Thu 03:23:00 AM 58.0693 32.9105 307° West  Level FlightAware Approximate
Thu 03:24:00 AM 58.1374 32.7401 307° West  Level FlightAware Approximate
Thu 03:25:00 AM 58.2053 32.5692 307° West  Level FlightAware Approximate
Thu 03:26:00 AM 58.2730 32.3975 307° West  Level FlightAware Approximate
Thu 03:27:00 AM 58.3404 32.2253 307° West  Level FlightAware Approximate
Thu 03:28:00 AM 58.4076 32.0523 307° West  Level FlightAware Approximate
Thu 03:29:00 AM 58.4745 31.8787 306° West  Level FlightAware Approximate
Thu 03:30:00 AM 58.5413 31.7045 306° West  Level FlightAware Approximate
Thu 03:31:00 AM 58.6078 31.5296 306° West  Level FlightAware Approximate
Thu 03:32:00 AM 58.6743 31.3544 306° West  Level FlightAware Approximate
Thu 03:33:00 AM 58.7406 31.1785 306° West  Level FlightAware Approximate
Thu 03:34:00 AM 58.8066 31.0020 306° West  Level FlightAware Approximate
Thu 03:35:00 AM 58.8724 30.8248 306° West  Level FlightAware Approximate
Thu 03:36:00 AM 58.9380 30.6469 306° West  Level FlightAware Approximate
Thu 03:37:00 AM 59.0033 30.4683 305° West  Level FlightAware Approximate
Thu 03:38:00 AM 59.0683 30.2890 305° West  Level FlightAware Approximate
Thu 03:39:00 AM 59.1331 30.1091 305° West  Level FlightAware Approximate
Thu 03:40:00 AM 59.1977 29.9285 305° West  Level FlightAware Approximate
Thu 03:41:00 AM 59.2620 29.7472 305° West  Level FlightAware Approximate
Thu 03:42:00 AM 59.3260 29.5652 305° West  Level FlightAware Approximate
Thu 03:43:00 AM 59.3899 29.3826 305° West  Level FlightAware Approximate
Thu 03:44:00 AM 59.4534 29.1992 304° West  Level FlightAware Approximate
Thu 03:45:00 AM 59.5167 29.0152 304° West  Level FlightAware Approximate
Thu 03:46:00 AM 59.5797 28.8305 304° West  Level FlightAware Approximate
Thu 03:47:00 AM 59.6425 28.6450 304° West  Level FlightAware Approximate
Thu 03:48:00 AM 59.7050 28.4589 304° West  Level FlightAware Approximate
Thu 03:49:00 AM 59.7672 28.2721 304° West  Level FlightAware Approximate
Thu 03:50:00 AM 59.8292 28.0846 303° West  Level FlightAware Approximate
Thu 03:51:00 AM 59.8909 27.8964 303° West  Level FlightAware Approximate
Thu 03:52:00 AM 59.9524 27.7075 303° West  Level FlightAware Approximate
Thu 03:53:00 AM 60.0135 27.5179 303° West  Level FlightAware Approximate
Thu 03:54:00 AM 60.0744 27.3276 303° West  Level FlightAware Approximate
Thu 03:55:00 AM 60.1350 27.1366 303° West  Level FlightAware Approximate
Thu 03:56:00 AM 60.1954 26.9449 302° West  Level FlightAware Approximate
Thu 03:57:00 AM 60.2555 26.7525 302° West  Level FlightAware Approximate
Thu 03:58:00 AM 60.3152 26.5593 302° West  Level FlightAware Approximate
Thu 03:59:00 AM 60.3747 26.3655 302° West  Level FlightAware Approximate
Thu 04:00:00 AM 60.4340 26.1710 302° West  Level FlightAware Approximate
Thu 04:01:00 AM 60.4929 25.9757 302° West  Level FlightAware Approximate
Thu 04:02:00 AM 60.5516 25.7798 301° West  Level FlightAware Approximate
Thu 04:03:00 AM 60.6099 25.5831 301° West  Level FlightAware Approximate
Thu 04:04:00 AM 60.6680 25.3857 301° West  Level FlightAware Approximate
Thu 04:05:00 AM 60.7259 25.1878 301° West  Level FlightAware Approximate
Thu 04:06:00 AM 60.7835 24.9892 301° West  Level FlightAware Approximate
Thu 04:07:00 AM 60.8409 24.7899 301° West  Level FlightAware Approximate
Thu 04:08:00 AM 60.8980 24.5898 300° West  Level FlightAware Approximate
Thu 04:09:00 AM 60.9547 24.3891 300° West  Level FlightAware Approximate
Thu 04:10:00 AM 61.0112 24.1876 300° West  Level FlightAware Approximate
Thu 04:11:00 AM 61.0673 23.9855 300° West  Level FlightAware Approximate
Thu 04:12:00 AM 61.1232 23.7826 300° West  Level FlightAware Approximate
Thu 04:13:00 AM 61.1788 23.5790 300° West  Level FlightAware Approximate
Thu 04:14:00 AM 61.2340 23.3746 299° West  Level FlightAware Approximate
Thu 04:15:00 AM 61.2889 23.1696 299° West  Level FlightAware Approximate
Thu 04:16:00 AM 61.3436 22.9638 299° West  Level FlightAware Approximate
Thu 04:17:00 AM 61.3979 22.7573 299° West  Level FlightAware Approximate
Thu 04:18:00 AM 61.4519 22.5501 299° West  Level FlightAware Approximate
Thu 04:19:00 AM 61.5056 22.3422 298° West  Level FlightAware Approximate
Thu 04:20:00 AM 61.5589 22.1336 298° West  Level FlightAware Approximate
Thu 04:21:00 AM 61.6120 21.9242 298° West  Level FlightAware Approximate
Thu 04:22:00 AM 61.6647 21.7142 298° West  Level FlightAware Approximate
Thu 04:23:00 AM 61.7171 21.5034 298° West  Level FlightAware Approximate
Thu 04:24:00 AM 61.7692 21.2919 298° West  Level FlightAware Approximate
Thu 04:25:00 AM 61.8209 21.0797 297° West  Level FlightAware Approximate
Thu 04:26:00 AM 61.8724 20.8668 297° West  Level FlightAware Approximate
Thu 04:27:00 AM 61.9235 20.6531 297° West  Level FlightAware Approximate
Thu 04:28:00 AM 61.9742 20.4388 297° West  Level FlightAware Approximate
Thu 04:29:00 AM 62.0247 20.2237 297° West  Level FlightAware Approximate
Thu 04:30:00 AM 62.0748 20.0079 296° West  Level FlightAware Approximate
Thu 04:31:00 AM 62.1245 19.7914 296° West  Level FlightAware Approximate
Thu 04:32:00 AM 62.1739 19.5742 296° West  Level FlightAware Approximate
Thu 04:33:00 AM 62.2230 19.3563 296° West  Level FlightAware Approximate
Thu 04:34:00 AM 62.2718 19.1377 296° West  Level FlightAware Approximate
Thu 04:35:00 AM 62.3201 18.9184 295° West  Level FlightAware Approximate
Thu 04:36:00 AM 62.3682 18.6984 295° West  Level FlightAware Approximate
Thu 04:37:00 AM 62.4159 18.4776 295° West  Level FlightAware Approximate
Thu 04:38:00 AM 62.4632 18.2562 295° West  Level FlightAware Approximate
Thu 04:39:00 AM 62.5102 18.0341 295° West  Level FlightAware Approximate
Thu 04:40:00 AM 62.5569 17.8113 295° West  Level FlightAware Approximate
Thu 04:41:00 AM 62.6031 17.5877 294° West  Level FlightAware Approximate
Thu 04:42:00 AM 62.6491 17.3635 294° West  Level FlightAware Approximate
Thu 04:43:00 AM 62.6946 17.1386 294° West  Level FlightAware Approximate
Thu 04:44:00 AM 62.7398 16.9130 294° West  Level FlightAware Approximate
Thu 04:45:00 AM 62.7847 16.6867 294° West  Level FlightAware Approximate
Thu 04:46:00 AM 62.8292 16.4597 293° West  Level FlightAware Approximate
Thu 04:47:00 AM 62.8733 16.2320 293° West  Level FlightAware Approximate
Thu 04:48:00 AM 62.9170 16.0037 293° West  Level FlightAware Approximate
Thu 04:49:00 AM 62.9604 15.7747 293° West  Level FlightAware Approximate
Thu 04:50:00 AM 63.0034 15.5450 292° West  Level FlightAware Approximate
Thu 04:51:00 AM 63.0460 15.3146 292° West  Level FlightAware Approximate
Thu 04:52:00 AM 63.0883 15.0835 292° West  Level FlightAware Approximate
Thu 04:53:00 AM 63.1301 14.8518 292° West  Level FlightAware Approximate
Thu 04:54:00 AM 63.1716 14.6194 292° West  Level FlightAware Approximate
Thu 04:55:00 AM 63.2128 14.3864 291° West  Level FlightAware Approximate
Thu 04:56:00 AM 63.2535 14.1526 291° West  Level FlightAware Approximate
Thu 04:57:00 AM 63.2938 13.9183 291° West  Level FlightAware Approximate
Thu 04:58:00 AM 63.3338 13.6833 291° West  Level FlightAware Approximate
Thu 04:59:00 AM 63.3734 13.4476 291° West  Level FlightAware Approximate
Thu 05:00:00 AM 63.4126 13.2113 290° West  Level FlightAware Approximate
Thu 05:01:00 AM 63.4514 12.9743 290° West  Level FlightAware Approximate
Thu 05:02:00 AM 63.4898 12.7367 290° West  Level FlightAware Approximate
Thu 05:03:00 AM 63.5278 12.4984 290° West  Level FlightAware Approximate
Thu 05:04:00 AM 63.5654 12.2596 290° West  Level FlightAware Approximate
Thu 05:05:00 AM 63.6026 12.0201 289° West  Level FlightAware Approximate
Thu 05:06:00 AM 63.6394 11.7799 289° West  Level FlightAware Approximate
Thu 05:07:00 AM 63.6758 11.5392 289° West  Level FlightAware Approximate
Thu 05:08:00 AM 63.7118 11.2978 289° West  Level FlightAware Approximate
Thu 05:09:00 AM 63.7474 11.0559 288° West  Level FlightAware Approximate
Thu 05:10:00 AM 63.7826 10.8133 288° West  Level FlightAware Approximate
Thu 05:11:00 AM 63.8174 10.5701 288° West  Level FlightAware Approximate
Thu 05:12:00 AM 63.8518 10.3263 288° West  Level FlightAware Approximate
Thu 05:13:00 AM 63.8858 10.0819 288° West  Level FlightAware Approximate
Thu 05:14:00 AM 63.9193 9.8370 287° West  Level FlightAware Approximate
Thu 05:15:00 AM 63.9525 9.5914 287° West  Level FlightAware Approximate
Thu 05:16:00 AM 63.9852 9.3453 287° West  Level FlightAware Approximate
Thu 05:17:00 AM 64.0175 9.0986 287° West  Level FlightAware Approximate
Thu 05:18:00 AM 64.0494 8.8513 287° West  Level FlightAware Approximate
Thu 05:19:00 AM 64.0809 8.6035 286° West  Level FlightAware Approximate
Thu 05:20:00 AM 64.1119 8.3551 286° West  Level FlightAware Approximate
Thu 05:21:00 AM 64.1425 8.1062 286° West  Level FlightAware Approximate
Thu 05:22:00 AM 64.1727 7.8567 286° West  Level FlightAware Approximate
Thu 05:23:00 AM 64.2025 7.6067 285° West  Level FlightAware Approximate
Thu 05:24:00 AM 64.2318 7.3561 285° West  Level FlightAware Approximate
Thu 05:25:00 AM 64.2607 7.1051 285° West  Level FlightAware Approximate
Thu 05:26:00 AM 64.2892 6.8534 285° West  Level FlightAware Approximate
Thu 05:27:00 AM 64.3173 6.6013 285° West  Level FlightAware Approximate
Thu 05:28:00 AM 64.3449 6.3487 284° West  Level FlightAware Approximate
Thu 05:29:00 AM 64.3721 6.0956 284° West  Level FlightAware Approximate
Thu 05:30:00 AM 64.3988 5.8419 284° West  Level FlightAware Approximate
Thu 05:31:00 AM 64.4251 5.5878 284° West  Level FlightAware Approximate
Thu 05:32:00 AM 64.4510 5.3332 283° West  Level FlightAware Approximate
Thu 05:33:00 AM 64.4764 5.0781 283° West  Level FlightAware Approximate
Thu 05:34:00 AM 64.5014 4.8226 283° West  Level FlightAware Approximate
Thu 05:35:00 AM 64.5259 4.5665 283° West  Level FlightAware Approximate
Thu 05:36:00 AM 64.5500 4.3101 282° West  Level FlightAware Approximate
Thu 05:37:00 AM 64.5736 4.0532 282° West  Level FlightAware Approximate
Thu 05:38:00 AM 64.5968 3.7958 282° West  Level FlightAware Approximate
Thu 05:39:00 AM 64.6196 3.5380 282° West  Level FlightAware Approximate
Thu 05:40:00 AM 64.6419 3.2798 282° West  Level FlightAware Approximate
Thu 05:41:00 AM 64.6637 3.0211 281° West  Level FlightAware Approximate
Thu 05:42:00 AM 64.6851 2.7620 281° West  Level FlightAware Approximate
Thu 05:43:00 AM 64.7060 2.5026 281° West  Level FlightAware Approximate
Thu 05:44:00 AM 64.7265 2.2427 281° West  Level FlightAware Approximate
Thu 05:45:00 AM 64.7466 1.9825 280° West  Level FlightAware Approximate
Thu 05:46:00 AM 64.7661 1.7218 280° West  Level FlightAware Approximate
Thu 05:47:00 AM 64.7852 1.4608 280° West  Level FlightAware Approximate
Thu 05:48:00 AM 64.8039 1.1994 280° West  Level FlightAware Approximate
Thu 05:49:00 AM 64.8221 0.9377 279° West  Level FlightAware Approximate
Thu 05:50:00 AM 64.8398 0.6756 279° West  Level FlightAware Approximate
Thu 05:51:00 AM 64.8571 0.4132 279° West  Level FlightAware Approximate
Thu 05:52:00 AM 64.8739 0.1505 279° West  Level FlightAware Approximate
Thu 05:53:00 AM 64.8903 -0.1126 278° West  Level FlightAware Approximate
Thu 05:54:00 AM 64.9061 -0.3760 278° West  Level FlightAware Approximate
Thu 05:55:00 AM 64.9215 -0.6397 278° West  Level FlightAware Approximate
Thu 05:56:00 AM 64.9364 -0.9038 278° West  Level FlightAware Approximate
Thu 05:57:00 AM 64.9509 -1.1681 277° West  Level FlightAware Approximate
Thu 05:58:00 AM 64.9649 -1.4326 277° West  Level FlightAware Approximate
Thu 05:59:00 AM 64.9784 -1.6975 277° West  Level FlightAware Approximate
Thu 06:00:00 AM 64.9914 -1.9626 277° West  Level FlightAware Approximate
Thu 06:01:00 AM 65.0040 -2.2280 277° West  Level FlightAware Approximate
Thu 06:02:00 AM 65.0161 -2.4936 276° West  Level FlightAware Approximate
Thu 06:03:00 AM 65.0277 -2.7594 276° West  Level FlightAware Approximate
Thu 06:04:00 AM 65.0389 -3.0255 276° West  Level FlightAware Approximate
Thu 06:05:00 AM 65.0496 -3.2918 276° West  Level FlightAware Approximate
Thu 06:06:00 AM 65.0598 -3.5583 275° West  Level FlightAware Approximate
Thu 06:07:00 AM 65.0695 -3.8250 275° West  Level FlightAware Approximate
Thu 06:08:00 AM 65.0788 -4.0919 275° West  Level FlightAware Approximate
Thu 06:09:00 AM 65.0876 -4.3590 275° West  Level FlightAware Approximate
Thu 06:10:00 AM 65.0959 -4.6262 274° West  Level FlightAware Approximate
Thu 06:11:00 AM 65.1037 -4.8937 274° West  Level FlightAware Approximate
Thu 06:12:00 AM 65.1111 -5.1612 274° West  Level FlightAware Approximate
Thu 06:13:00 AM 65.1180 -5.4289 274° West  Level FlightAware Approximate
Thu 06:14:00 AM 65.1244 -5.6968 273° West  Level FlightAware Approximate
Thu 06:15:00 AM 65.1303 -5.9647 273° West  Level FlightAware Approximate
Thu 06:16:00 AM 65.1357 -6.2328 273° West  Level FlightAware Approximate
Thu 06:17:00 AM 65.1407 -6.5010 273° West  Level FlightAware Approximate
Thu 06:18:00 AM 65.1452 -6.7693 272° West  Level FlightAware Approximate
Thu 06:19:00 AM 65.1492 -7.0376 272° West  Level FlightAware Approximate
Thu 06:20:00 AM 65.1527 -7.3061 272° West  Level FlightAware Approximate
Thu 06:21:00 AM 65.1558 -7.5746 272° West  Level FlightAware Approximate
Thu 06:22:00 AM 65.1584 -7.8432 271° West  Level FlightAware Approximate
Thu 06:23:00 AM 65.1605 -8.1118 271° West  Level FlightAware Approximate
Thu 06:24:00 AM 65.1621 -8.3804 271° West  Level FlightAware Approximate
Thu 06:25:00 AM 65.1632 -8.6491 271° West  Level FlightAware Approximate
Thu 06:26:00 AM 65.1638 -8.9178 270° West  Level FlightAware Approximate
Thu 06:27:00 AM 65.1640 -9.1865 270° West  Level FlightAware Approximate
Thu 06:28:00 AM 65.1637 -9.4552 270° West  Level FlightAware Approximate
Thu 06:29:00 AM 65.1629 -9.7239 270° West  Level FlightAware Approximate
Thu 06:30:00 AM 65.1616 -9.9926 269° West  Level FlightAware Approximate
Thu 06:31:00 AM 65.1599 -10.2612 269° West  Level FlightAware Approximate
Thu 06:32:00 AM 65.1577 -10.5298 269° West  Level FlightAware Approximate
Thu 06:33:00 AM 65.1550 -10.7984 269° West  Level FlightAware Approximate
Thu 06:34:00 AM 65.1518 -11.0668 269° West  Level FlightAware Approximate
Thu 06:35:00 AM 65.1481 -11.3353 268° West  Level FlightAware Approximate
Thu 06:36:00 AM 65.1439 -11.6036 268° West  Level FlightAware Approximate
Thu 06:37:00 AM 65.1393 -11.8719 268° West  Level FlightAware Approximate
Thu 06:38:00 AM 65.1342 -12.1400 268° West  Level FlightAware Approximate
Thu 06:39:00 AM 65.1286 -12.4081 267° West  Level FlightAware Approximate
Thu 06:40:00 AM 65.1226 -12.6760 267° West  Level FlightAware Approximate
Thu 06:41:00 AM 65.1160 -12.9438 267° West  Level FlightAware Approximate
Thu 06:42:00 AM 65.1090 -13.2115 267° West  Level FlightAware Approximate
Thu 06:43:00 AM 65.1015 -13.4790 266° West  Level FlightAware Approximate
Thu 06:44:00 AM 65.0935 -13.7464 266° West  Level FlightAware Approximate
Thu 06:45:00 AM 65.0851 -14.0135 266° West  Level FlightAware Approximate
Thu 06:46:00 AM 65.0761 -14.2806 266° West  Level FlightAware Approximate
Thu 06:47:00 AM 65.0667 -14.5474 265° West  Level FlightAware Approximate
Thu 06:48:00 AM 65.0569 -14.8141 265° West  Level FlightAware Approximate
Thu 06:49:00 AM 65.0465 -15.0805 265° West  Level FlightAware Approximate
Thu 06:50:00 AM 65.0357 -15.3467 265° West  Level FlightAware Approximate
Thu 06:51:00 AM 65.0244 -15.6128 264° West  Level FlightAware Approximate
Thu 06:52:00 AM 65.0126 -15.8785 264° West  Level FlightAware Approximate
Thu 06:53:00 AM 65.0004 -16.1441 264° West  Level FlightAware Approximate
Thu 06:54:00 AM 64.9877 -16.4094 264° West  Level FlightAware Approximate
Thu 06:55:00 AM 64.9745 -16.6744 263° West  Level FlightAware Approximate
Thu 06:56:00 AM 64.9608 -16.9392 263° West  Level FlightAware Approximate
Thu 06:57:00 AM 64.9467 -17.2037 263° West  Level FlightAware Approximate
Thu 06:58:00 AM 64.9321 -17.4679 263° West  Level FlightAware Approximate
Thu 06:59:00 AM 64.9171 -17.7318 262° West  Level FlightAware Approximate
Thu 07:00:00 AM 64.9016 -17.9955 262° West  Level FlightAware Approximate
Thu 07:01:00 AM 64.8856 -18.2588 262° West  Level FlightAware Approximate
Thu 07:02:00 AM 64.8691 -18.5218 262° West  Level FlightAware Approximate
Thu 07:03:00 AM 64.8522 -18.7844 261° West  Level FlightAware Approximate
Thu 07:04:00 AM 64.8348 -19.0468 261° West  Level FlightAware Approximate
Thu 07:05:00 AM 64.8170 -19.3088 261° West  Level FlightAware Approximate
Thu 07:06:00 AM 64.7987 -19.5704 261° West  Level FlightAware Approximate
Thu 07:07:00 AM 64.7799 -19.8317 261° West  Level FlightAware Approximate
Thu 07:08:00 AM 64.7607 -20.0926 260° West  Level FlightAware Approximate
Thu 07:09:00 AM 64.7410 -20.3531 260° West  Level FlightAware Approximate
Thu 07:10:00 AM 64.7209 -20.6133 260° West  Level FlightAware Approximate
Thu 07:11:00 AM 64.7003 -20.8731 260° West  Level FlightAware Approximate
Thu 07:12:00 AM 64.6793 -21.1324 259° West  Level FlightAware Approximate
Thu 07:13:00 AM 64.6578 -21.3914 259° West  Level FlightAware Approximate
Thu 07:14:00 AM 64.6358 -21.6499 259° West  Level FlightAware Approximate
Thu 07:15:00 AM 64.6134 -21.9081 259° West  Level FlightAware Approximate
Thu 07:16:00 AM 64.5906 -22.1658 258° West  Level FlightAware Approximate
Thu 07:17:00 AM 64.5673 -22.4230 258° West  Level FlightAware Approximate
Thu 07:18:00 AM 64.5435 -22.6798 258° West  Level FlightAware Approximate
Thu 07:19:00 AM 64.5193 -22.9362 258° West  Level FlightAware Approximate
Thu 07:20:00 AM 64.4947 -23.1921 258° West  Level FlightAware Approximate
Thu 07:21:00 AM 64.4696 -23.4475 257° West  Level FlightAware Approximate
Thu 07:22:00 AM 64.4441 -23.7025 257° West  Level FlightAware Approximate
Thu 07:23:00 AM 64.4182 -23.9570 257° West  Level FlightAware Approximate
Thu 07:24:00 AM 64.3917 -24.2110 257° West  Level FlightAware Approximate
Thu 07:25:00 AM 64.3649 -24.4645 256° West  Level FlightAware Approximate
Thu 07:26:00 AM 64.3376 -24.7175 256° West  Level FlightAware Approximate
Thu 07:27:00 AM 64.3099 -24.9700 256° West  Level FlightAware Approximate
Thu 07:28:00 AM 64.2818 -25.2220 256° West  Level FlightAware Approximate
Thu 07:29:00 AM 64.2532 -25.4735 255° West  Level FlightAware Approximate
Thu 07:30:00 AM 64.2242 -25.7244 255° West  Level FlightAware Approximate
Thu 07:31:00 AM 64.1948 -25.9749 255° West  Level FlightAware Approximate
Thu 07:32:00 AM 64.1649 -26.2248 255° West  Level FlightAware Approximate
Thu 07:33:00 AM 64.1346 -26.4741 255° West  Level FlightAware Approximate
Thu 07:34:00 AM 64.1039 -26.7229 254° West  Level FlightAware Approximate
Thu 07:35:00 AM 64.0727 -26.9712 254° West  Level FlightAware Approximate
Thu 07:36:00 AM 64.0412 -27.2189 254° West  Level FlightAware Approximate
Thu 07:37:00 AM 64.0092 -27.4660 254° West  Level FlightAware Approximate
Thu 07:38:00 AM 63.9768 -27.7125 253° West  Level FlightAware Approximate
Thu 07:39:00 AM 63.9440 -27.9585 253° West  Level FlightAware Approximate
Thu 07:40:00 AM 63.9108 -28.2039 253° West  Level FlightAware Approximate
Thu 07:41:00 AM 63.8771 -28.4488 253° West  Level FlightAware Approximate
Thu 07:42:00 AM 63.8430 -28.6930 253° West  Level FlightAware Approximate
Thu 07:43:00 AM 63.8086 -28.9366 252° West  Level FlightAware Approximate
Thu 07:44:00 AM 63.7737 -29.1797 252° West  Level FlightAware Approximate
Thu 07:45:00 AM 63.7384 -29.4221 252° West  Level FlightAware Approximate
Thu 07:46:00 AM 63.7027 -29.6639 252° West  Level FlightAware Approximate
Thu 07:47:00 AM 63.6666 -29.9051 251° West  Level FlightAware Approximate
Thu 07:48:00 AM 63.6301 -30.1458 251° West  Level FlightAware Approximate
Thu 07:49:00 AM 63.5932 -30.3857 251° West  Level FlightAware Approximate
Thu 07:50:00 AM 63.5559 -30.6251 251° West  Level FlightAware Approximate
Thu 07:51:00 AM 63.5182 -30.8638 251° West  Level FlightAware Approximate
Thu 07:52:00 AM 63.4801 -31.1019 250° West  Level FlightAware Approximate
Thu 07:53:00 AM 63.4416 -31.3393 250° West  Level FlightAware Approximate
Thu 07:54:00 AM 63.4027 -31.5762 250° West  Level FlightAware Approximate
Thu 07:55:00 AM 63.3635 -31.8123 250° West  Level FlightAware Approximate
Thu 07:56:00 AM 63.3238 -32.0479 250° West  Level FlightAware Approximate
Thu 07:57:00 AM 63.2837 -32.2827 249° West  Level FlightAware Approximate
Thu 07:58:00 AM 63.2433 -32.5169 249° West  Level FlightAware Approximate
Thu 07:59:00 AM 63.2025 -32.7505 249° West  Level FlightAware Approximate
Thu 08:00:00 AM 63.1613 -32.9834 249° West  Level FlightAware Approximate
Thu 08:01:00 AM 63.1197 -33.2156 248° West  Level FlightAware Approximate
Thu 08:02:00 AM 63.0778 -33.4472 248° West  Level FlightAware Approximate
Thu 08:03:00 AM 63.0354 -33.6781 248° West  Level FlightAware Approximate
Thu 08:04:00 AM 62.9927 -33.9083 248° West  Level FlightAware Approximate
Thu 08:05:00 AM 62.9496 -34.1379 248° West  Level FlightAware Approximate
Thu 08:06:00 AM 62.9062 -34.3667 247° West  Level FlightAware Approximate
Thu 08:07:00 AM 62.8623 -34.5949 247° West  Level FlightAware Approximate
Thu 08:08:00 AM 62.8181 -34.8224 247° West  Level FlightAware Approximate
Thu 08:09:00 AM 62.7736 -35.0492 247° West  Level FlightAware Approximate
Thu 08:10:00 AM 62.7287 -35.2754 247° West  Level FlightAware Approximate
Thu 08:11:00 AM 62.6834 -35.5008 246° West  Level FlightAware Approximate
Thu 08:12:00 AM 62.6376 -35.7254 246° West  Level FlightAware Approximate
Thu 08:13:00 AM 62.5913 -35.9492 246° West  Level FlightAware Approximate
Thu 08:14:00 AM 62.5446 -36.1723 246° West  Level FlightAware Approximate
Thu 08:15:00 AM 62.4976 -36.3946 245° Southwest  Level FlightAware Approximate
Thu 08:16:00 AM 62.4503 -36.6163 245° Southwest  Level FlightAware Approximate
Thu 08:17:00 AM 62.4026 -36.8373 245° Southwest  Level FlightAware Approximate
Thu 08:18:00 AM 62.3545 -37.0576 245° Southwest  Level FlightAware Approximate
Thu 08:19:00 AM 62.3061 -37.2771 245° Southwest  Level FlightAware Approximate
Thu 08:20:00 AM 62.2574 -37.4960 245° Southwest  Level FlightAware Approximate
Thu 08:21:00 AM 62.2083 -37.7141 244° Southwest  Level FlightAware Approximate
Thu 08:21:43 AM 66.2167 -53.5500 243° Southwest 480 552 35,000  Level Gander Center
Thu 08:22:00 AM 62.1589 -37.9316 244° Southwest  Level FlightAware Approximate
Thu 08:22:43 AM 66.1167 -53.7500 219° Southwest 480 552 35,000  Level Gander Center
Thu 08:23:00 AM 62.1091 -38.1483 244° Southwest  Level FlightAware Approximate
Thu 08:23:43 AM 66.0000 -53.9500 215° Southwest 480 552 35,000  Level Gander Center
Thu 08:24:00 AM 62.0590 -38.3643 244° Southwest  Level FlightAware Approximate
Thu 08:24:43 AM 65.9000 -54.1333 217° Southwest 480 552 35,000  Level Gander Center
Thu 08:25:00 AM 62.0086 -38.5796 244° Southwest  Level FlightAware Approximate
Thu 08:25:43 AM 65.8000 -54.3333 219° Southwest 480 552 35,000  Level Gander Center
Thu 08:26:00 AM 61.9578 -38.7942 243° Southwest  Level FlightAware Approximate
Thu 08:26:43 AM 65.6833 -54.5167 213° Southwest 480 552 35,000  Level Gander Center
Thu 08:27:43 AM 65.5833 -54.7000 217° Southwest 480 552 35,000  Level Gander Center
Thu 08:28:43 AM 65.4667 -54.8833 213° Southwest 480 552 35,000  Level Gander Center
Thu 08:29:43 AM 65.3667 -55.0667 217° Southwest 480 552 35,000  Level Gander Center
Thu 08:30:43 AM 65.2500 -55.2500 213° Southwest 480 552 35,000  Level Gander Center
Thu 08:31:43 AM 65.1667 -55.4333 223° Southwest 480 552 35,000  Level Gander Center
Thu 08:32:43 AM 65.0500 -55.5667 206° Southwest 480 552 35,000  Level Gander Center
Thu 08:33:43 AM 64.9333 -55.7500 214° Southwest 480 552 35,000  Level Gander Center
Thu 08:34:43 AM 64.8333 -55.9167 215° Southwest 480 552 35,000  Level Gander Center
Thu 08:35:43 AM 64.7167 -56.1000 214° Southwest 480 552 35,000  Level Gander Center
Thu 08:36:15 AM 64.6500 -56.1500 198° South 460 529 35,000  Level Montreal Center
Thu 08:37:15 AM 64.5500 -56.3000 213° Southwest 470 541 35,000  Level Montreal Center
Thu 08:38:15 AM 64.4333 -56.4667 212° Southwest 480 552 35,000  Level Montreal Center
Thu 08:39:15 AM 64.3167 -56.6667 217° Southwest 470 541 35,000  Level Montreal Center
Thu 08:40:15 AM 64.2167 -56.8167 213° Southwest 480 552 35,000  Level Montreal Center
Thu 08:41:15 AM 64.1000 -56.9667 209° Southwest 470 541 35,000  Level Montreal Center
Thu 08:42:15 AM 64.0000 -57.1500 219° Southwest 470 541 35,000  Level Montreal Center
Thu 08:43:15 AM 63.9000 -57.3500 221° Southwest 470 541 35,000  Level Montreal Center
Thu 08:44:15 AM 63.8000 -57.5333 219° Southwest 470 541 35,000  Level Montreal Center
Thu 08:45:15 AM 63.7000 -57.7167 219° Southwest 470 541 35,000  Level Montreal Center
Thu 08:46:15 AM 63.6000 -57.8500 211° Southwest 470 541 35,000  Level Montreal Center
Thu 08:47:15 AM 63.5000 -58.0333 219° Southwest 470 541 35,000  Level Montreal Center
Thu 08:48:15 AM 63.3833 -58.2167 215° Southwest 470 541 35,000  Level Montreal Center
Thu 08:49:15 AM 63.2833 -58.3833 217° Southwest 470 541 35,000  Level Montreal Center
Thu 08:50:15 AM 63.1833 -58.5667 220° Southwest 470 541 35,000  Level Montreal Center
Thu 08:51:15 AM 63.0833 -58.7333 217° Southwest 460 529 35,000  Level Montreal Center
Thu 08:52:15 AM 62.9833 -58.9167 220° Southwest 470 541 35,000  Level Montreal Center
Thu 08:53:15 AM 62.8667 -59.0833 213° Southwest 470 541 35,000  Level Montreal Center
Thu 08:54:15 AM 62.7667 -59.2500 217° Southwest 470 541 35,000  Level Montreal Center
Thu 08:55:15 AM 62.6667 -59.4167 217° Southwest 470 541 35,000  Level Montreal Center
Thu 08:56:15 AM 62.5667 -59.5833 218° Southwest 470 541 35,000  Level Montreal Center
Thu 08:57:15 AM 62.4500 -59.7667 216° Southwest 460 529 35,000 50 Level Montreal Center
Thu 08:58:15 AM 62.3500 -59.9333 218° Southwest 460 529 35,100 250 Climbing Montreal Center
Thu 08:59:15 AM 62.2500 -60.1000 218° Southwest 460 529 35,500 450 Climbing Montreal Center
Thu 09:00:15 AM 62.1500 -60.2500 215° Southwest 460 529 36,000 250 Climbing Montreal Center
Thu 09:01:15 AM 62.0333 -60.4167 214° Southwest 470 541 36,000  Level Montreal Center
Thu 09:02:15 AM 61.9333 -60.5833 218° Southwest 470 541 36,000  Level Montreal Center
Thu 09:03:15 AM 61.8333 -60.7000 209° Southwest 460 529 36,000  Level Montreal Center
Thu 09:04:15 AM 61.7167 -60.8667 214° Southwest 460 529 36,000  Level Montreal Center
Thu 09:05:15 AM 61.6333 -61.0167 221° Southwest 460 529 36,000  Level Montreal Center
Thu 09:06:15 AM 61.5000 -61.1833 211° Southwest 460 529 36,000  Level Montreal Center
Thu 09:07:15 AM 61.4167 -61.3333 221° Southwest 470 541 36,000  Level Montreal Center
Thu 09:08:15 AM 61.3000 -61.4833 212° Southwest 470 541 36,000  Level Montreal Center
Thu 09:09:15 AM 61.2000 -61.6500 219° Southwest 460 529 36,000  Level Montreal Center
Thu 09:10:15 AM 61.1000 -61.8000 216° Southwest 460 529 36,000  Level Montreal Center
Thu 09:11:15 AM 60.9833 -61.9500 212° Southwest 470 541 36,000  Level Montreal Center
Thu 09:12:15 AM 60.8667 -62.1000 212° Southwest 470 541 36,000  Level Montreal Center
Thu 09:13:15 AM 60.7667 -62.2500 216° Southwest 470 541 36,000  Level Montreal Center
Thu 09:14:15 AM 60.6667 -62.4000 216° Southwest 470 541 36,000  Level Montreal Center
Thu 09:15:15 AM 60.5500 -62.5500 212° Southwest 470 541 36,000  Level Montreal Center
Thu 09:16:15 AM 60.4333 -62.7000 212° Southwest 470 541 36,000  Level Montreal Center
Thu 09:17:15 AM 60.3333 -62.8500 217° Southwest 470 541 36,000  Level Montreal Center
Thu 09:18:15 AM 60.2167 -62.9833 210° Southwest 470 541 36,000  Level Montreal Center
Thu 09:19:15 AM 60.1167 -63.1333 217° Southwest 470 541 36,000  Level Montreal Center
Thu 09:20:15 AM 60.0167 -63.2833 217° Southwest 470 541 36,000  Level Montreal Center
Thu 09:21:15 AM 59.8833 -63.3833 201° Southwest 470 541 36,000  Level Montreal Center
Thu 09:22:15 AM 59.7833 -63.5333 217° Southwest 470 541 36,000  Level Montreal Center
Thu 09:23:15 AM 59.6833 -63.7000 220° Southwest 470 541 36,000  Level Montreal Center
Thu 09:24:15 AM 59.5500 -63.8500 210° Southwest 470 541 36,000  Level Montreal Center
Thu 09:25:15 AM 59.4500 -63.9500 207° Southwest 470 541 36,000  Level Montreal Center
Thu 09:26:15 AM 59.3333 -64.0833 210° Southwest 470 541 36,000  Level Montreal Center
Thu 09:27:15 AM 59.2333 -64.2667 223° Southwest 470 541 36,000  Level Montreal Center
Thu 09:28:15 AM 59.1500 -64.4167 223° Southwest 460 529 36,000  Level Montreal Center
Thu 09:29:15 AM 59.0667 -64.6167 231° Southwest 460 529 36,000  Level Montreal Center
Thu 09:30:15 AM 58.9500 -64.7833 216° Southwest 460 529 36,000  Level Montreal Center
Thu 09:31:15 AM 58.8667 -64.9333 223° Southwest 470 541 36,000  Level Montreal Center
Thu 09:32:15 AM 58.7667 -65.1333 226° Southwest 470 541 36,000  Level Montreal Center
Thu 09:33:15 AM 58.6833 -65.3000 226° Southwest 470 541 36,000  Level Montreal Center
Thu 09:34:15 AM 58.5667 -65.4500 214° Southwest 470 541 36,000  Level Montreal Center
Thu 09:35:15 AM 58.4833 -65.6500 231° Southwest 470 541 36,000  Level Montreal Center
Thu 09:36:15 AM 58.3833 -65.8000 218° Southwest 470 541 36,000  Level Montreal Center
Thu 09:37:15 AM 58.2833 -65.9500 218° Southwest 470 541 36,000  Level Montreal Center
Thu 09:38:15 AM 58.1833 -66.1500 227° Southwest 470 541 36,000  Level Montreal Center
Thu 09:39:15 AM 58.1000 -66.3000 224° Southwest 470 541 36,000  Level Montreal Center
Thu 09:40:15 AM 57.9833 -66.4500 214° Southwest 460 529 36,000  Level Montreal Center
Thu 09:41:15 AM 57.9000 -66.6333 230° Southwest 460 529 36,000  Level Montreal Center
Thu 09:42:15 AM 57.8167 -66.7833 224° Southwest 460 529 36,000  Level Montreal Center
Thu 09:43:15 AM 57.7000 -66.9333 215° Southwest 460 529 36,000  Level Montreal Center
Thu 09:44:15 AM 57.6000 -67.1000 222° Southwest 470 541 36,000  Level Montreal Center
Thu 09:46:15 AM 57.3667 -67.3333 208° Southwest 470 541 36,000  Level Montreal Center
Thu 09:47:15 AM 57.2667 -67.4833 219° Southwest 460 529 36,000  Level Montreal Center
Thu 09:48:15 AM 57.1500 -67.6000 208° Southwest 460 529 36,000  Level Montreal Center
Thu 09:49:15 AM 57.0500 -67.7167 212° Southwest 470 541 36,000  Level Montreal Center
Thu 09:50:15 AM 56.9333 -67.8333 209° Southwest 460 529 36,000  Level Montreal Center
Thu 09:51:15 AM 56.8167 -67.9833 215° Southwest 460 529 36,000  Level Montreal Center
Thu 09:52:15 AM 56.7167 -68.1000 213° Southwest 460 529 36,000  Level Montreal Center
Thu 09:53:15 AM 56.6000 -68.2167 209° Southwest 460 529 36,000  Level Montreal Center
Thu 09:54:15 AM 56.4833 -68.3333 209° Southwest 460 529 36,000  Level Montreal Center
Thu 09:55:15 AM 56.4000 -68.4333 214° Southwest 460 529 36,000  Level Montreal Center
Thu 09:56:15 AM 56.2833 -68.5833 216° Southwest 460 529 36,000  Level Montreal Center
Thu 09:57:15 AM 56.1833 -68.7000 213° Southwest 460 529 36,000  Level Montreal Center
Thu 09:58:15 AM 56.0500 -68.8167 206° Southwest 460 529 36,000  Level Montreal Center
Thu 09:59:15 AM 55.9500 -68.9500 217° Southwest 460 529 36,000  Level Montreal Center
Thu 10:00:15 AM 55.8333 -69.0667 209° Southwest 460 529 36,000  Level Montreal Center
Thu 10:01:15 AM 55.7333 -69.1667 209° Southwest 460 529 36,000  Level Montreal Center
Thu 10:02:15 AM 55.6167 -69.2833 209° Southwest 460 529 36,000  Level Montreal Center
Thu 10:03:15 AM 55.5000 -69.4167 213° Southwest 460 529 36,000  Level Montreal Center
Thu 10:04:15 AM 55.4000 -69.5167 210° Southwest 460 529 36,000  Level Montreal Center
Thu 10:05:15 AM 55.2833 -69.6333 210° Southwest 460 529 36,000  Level Montreal Center
Thu 10:06:15 AM 55.1667 -69.7333 206° Southwest 460 529 36,000  Level Montreal Center
Thu 10:07:15 AM 55.0667 -69.8667 217° Southwest 460 529 36,000  Level Montreal Center
Thu 10:08:15 AM 54.9667 -69.9500 206° Southwest 450 518 36,000  Level Montreal Center
Thu 10:09:15 AM 54.8333 -70.0833 210° Southwest 450 518 36,000  Level Montreal Center
Thu 10:10:15 AM 54.7167 -70.1833 206° Southwest 450 518 36,000  Level Montreal Center
Thu 10:11:15 AM 54.6167 -70.2833 210° Southwest 450 518 36,000  Level Montreal Center
Thu 10:12:15 AM 54.5167 -70.4167 218° Southwest 460 529 36,000  Level Montreal Center
Thu 10:13:15 AM 54.4000 -70.5167 207° Southwest 450 518 36,000  Level Montreal Center
Thu 10:14:58 AM 54.2000 -70.7000 208° Southwest 460 529 36,000  Level Montreal Center
Thu 10:15:58 AM 54.0833 -70.8000 207° Southwest 450 518 36,000  Level Montreal Center
Thu 10:16:58 AM 53.9667 -70.9167 210° Southwest 450 518 36,000  Level Montreal Center
Thu 10:17:58 AM 53.8833 -71.0167 215° Southwest 450 518 36,000  Level Montreal Center
Thu 10:18:58 AM 53.7667 -71.1167 207° Southwest 460 529 36,000  Level Montreal Center
Thu 10:19:58 AM 53.6333 -71.2500 211° Southwest 460 529 36,000  Level Montreal Center
Thu 10:20:58 AM 53.5333 -71.3500 211° Southwest 450 518 36,000  Level Montreal Center
Thu 10:21:58 AM 53.4167 -71.4333 203° Southwest 450 518 36,000  Level Montreal Center
Thu 10:22:58 AM 53.3000 -71.5333 207° Southwest 450 518 36,000  Level Montreal Center
Thu 10:23:58 AM 53.2000 -71.6333 211° Southwest 450 518 36,000  Level Montreal Center
Thu 10:24:58 AM 53.0833 -71.7500 211° Southwest 450 518 36,000  Level Montreal Center
Thu 10:25:58 AM 52.9833 -71.8500 211° Southwest 460 529 36,000  Level Montreal Center
Thu 10:26:58 AM 52.8667 -71.9500 207° Southwest 460 529 36,000  Level Montreal Center
Thu 10:27:58 AM 52.7500 -72.0333 203° Southwest 460 529 36,000  Level Montreal Center
Thu 10:28:43 AM 52.6667 -72.1667 224° Southwest 460 529 36,000  Level Gander Center
Thu 10:29:43 AM 52.5500 -72.2500 203° Southwest 460 529 36,000  Level Gander Center
Thu 10:30:43 AM 52.4333 -72.3667 211° Southwest 460 529 36,000  Level Gander Center
Thu 10:31:43 AM 52.3167 -72.4500 204° Southwest 460 529 36,000  Level Gander Center
Thu 10:32:43 AM 52.2167 -72.5500 212° Southwest 460 529 36,000  Level Gander Center
Thu 10:33:43 AM 52.1000 -72.6667 212° Southwest 460 529 36,000  Level Gander Center
Thu 10:34:43 AM 51.9667 -72.7500 201° Southwest 460 529 36,000  Level Gander Center
Thu 10:35:43 AM 51.8500 -72.7333 175° South 460 529 36,000  Level Gander Center
Thu 10:36:43 AM 51.7167 -72.7667 189° South 460 529 36,000  Level Gander Center
Thu 10:37:43 AM 51.6000 -72.7833 185° South 470 541 36,000  Level Gander Center
Thu 10:38:43 AM 51.4667 -72.8000 184° South 470 541 36,000  Level Gander Center
Thu 10:39:43 AM 51.3333 -72.8167 184° South 470 541 36,000  Level Gander Center
Thu 10:40:43 AM 51.2000 -72.8500 189° South 470 541 36,000  Level Gander Center
Thu 10:41:43 AM 51.0833 -72.8667 185° South 460 529 36,000  Level Gander Center
Thu 10:42:43 AM 50.9500 -72.8667 180° South 460 529 36,000  Level Gander Center
Thu 10:43:43 AM 50.8333 -72.8833 185° South 460 529 36,000  Level Gander Center
Thu 10:44:43 AM 50.7167 -72.9000 185° South 450 518 36,000  Level Gander Center
Thu 10:45:43 AM 50.5833 -72.9333 189° South 450 518 36,000  Level Gander Center
Thu 10:46:58 AM 50.4333 -72.9000 172° South 440 506 36,000  Level Montreal Center
Thu 10:47:58 AM 50.3000 -72.9167 185° South 440 506 36,000  Level Montreal Center
Thu 10:48:58 AM 50.1833 -72.9500 190° South 440 506 36,000  Level Montreal Center
Thu 10:49:58 AM 50.0500 -72.9500 180° South 440 506 36,000  Level Montreal Center
Thu 10:50:58 AM 49.9333 -72.9667 185° South 430 495 36,000  Level Montreal Center
Thu 10:51:58 AM 49.8167 -72.9667 180° South 430 495 36,000  Level Montreal Center
Thu 10:52:58 AM 49.7000 -73.0000 190° South 430 495 36,000  Level Montreal Center
Thu 10:53:58 AM 49.5833 -73.0167 185° South 430 495 36,000  Level Montreal Center
Thu 10:54:58 AM 49.4667 -73.0167 180° South 420 483 36,000  Level Montreal Center
Thu 10:55:58 AM 49.3500 -73.0500 191° South 420 483 36,000  Level Montreal Center
Thu 10:56:58 AM 49.2333 -73.0500 180° South 420 483 36,000  Level Montreal Center
Thu 10:57:58 AM 49.1167 -73.0667 185° South 420 483 36,000  Level Montreal Center
Thu 10:58:58 AM 49.0000 -73.1000 191° South 410 472 36,000  Level Montreal Center
Thu 10:59:58 AM 48.8833 -73.1000 180° South 410 472 36,000  Level Montreal Center
Thu 11:00:58 AM 48.7833 -73.1167 186° South 410 472 36,000  Level Montreal Center
Thu 11:01:58 AM 48.6500 -73.1167 180° South 410 472 36,000  Level Montreal Center
Thu 11:02:58 AM 48.5500 -73.1500 192° South 410 472 36,000  Level Montreal Center
Thu 11:03:58 AM 48.4333 -73.1500 180° South 400 460 36,000  Level Montreal Center
Thu 11:04:58 AM 48.3167 -73.1667 185° South 410 472 36,000  Level Montreal Center
Thu 11:05:58 AM 48.1833 -73.2000 189° South 400 460 36,000  Level Montreal Center
Thu 11:06:58 AM 48.0833 -73.2000 180° South 400 460 36,000  Level Montreal Center
Thu 11:07:58 AM 47.9833 -73.2000 180° South 400 460 36,000  Level Montreal Center
Thu 11:14:27 AM 47.2810 -73.3090 185° South 389 448 36,000  Level FlightAware ADS-B
Thu 11:14:57 AM 47.2300 -73.3150 185° South 390 449 36,000  Level FlightAware ADS-B
Thu 11:15:32 AM 47.1630 -73.3230 185° South 390 449 36,000  Level FlightAware ADS-B
Thu 11:16:08 AM 47.1020 -73.3300 185° South 390 449 36,000  Level FlightAware ADS-B
Thu 11:16:38 AM 47.0490 -73.3360 185° South 390 449 36,000  Level FlightAware ADS-B
Thu 11:17:30 AM 46.9530 -73.3470 185° South 386 444 36,000  Level FlightAware ADS-B
Thu 11:18:07 AM 46.8890 -73.3550 185° South 383 441 36,000  Level FlightAware ADS-B
Thu 11:18:38 AM 46.8340 -73.3610 185° South 381 438 36,000  Level FlightAware ADS-B
Thu 11:19:08 AM 46.7820 -73.3670 185° South 381 438 36,000  Level FlightAware ADS-B
Thu 11:19:38 AM 46.7270 -73.3740 185° South 380 437 36,000  Level FlightAware ADS-B
Thu 11:20:14 AM 46.6650 -73.3810 185° South 380 437 36,000  Level FlightAware ADS-B
Thu 11:20:51 AM 46.6010 -73.3890 185° South 379 436 36,000  Level FlightAware ADS-B
Thu 11:21:20 AM 46.5510 -73.3940 185° South 378 435 36,000  Level FlightAware ADS-B
Thu 11:21:56 AM 46.4870 -73.4020 185° South 378 435 36,000  Level FlightAware ADS-B
Thu 11:22:26 AM 46.4360 -73.4070 185° South 377 434 36,000  Level FlightAware ADS-B
Thu 11:23:02 AM 46.3730 -73.4140 185° South 376 433 36,000  Level FlightAware ADS-B
Thu 11:23:33 AM 46.3210 -73.4200 185° South 376 433 36,000  Level FlightAware ADS-B
Thu 11:24:03 AM 46.2680 -73.4260 185° South 376 433 36,000  Level FlightAware ADS-B
Thu 11:24:32 AM 46.2180 -73.4320 185° South 376 433 36,000  Level FlightAware ADS-B
Thu 11:25:08 AM 46.1550 -73.4390 185° South 377 434 36,000  Level FlightAware ADS-B
Thu 11:25:45 AM 46.0930 -73.4460 185° South 380 437 36,000  Level FlightAware ADS-B
Thu 11:26:15 AM 46.0390 -73.4520 185° South 383 441 36,000  Level FlightAware ADS-B
Thu 11:26:50 AM 45.9750 -73.4600 185° South 386 444 36,000  Level FlightAware ADS-B
Thu 11:27:26 AM 45.9140 -73.4660 185° South 387 445 36,000  Level FlightAware ADS-B
Thu 11:27:57 AM 45.8590 -73.4730 185° South 386 444 36,000  Level FlightAware ADS-B
Thu 11:28:32 AM 45.7970 -73.4800 185° South 386 444 36,000  Level FlightAware ADS-B
Thu 11:29:02 AM 45.7420 -73.4860 185° South 387 445 36,000  Level FlightAware ADS-B
Thu 11:29:38 AM 45.6780 -73.4930 185° South 388 447 36,000  Level FlightAware ADS-B
Thu 11:30:14 AM 45.6140 -73.5000 185° South 389 448 36,000  Level FlightAware ADS-B
Thu 11:30:44 AM 45.5610 -73.5060 185° South 389 448 36,000  Level FlightAware ADS-B
Thu 11:31:09 AM 45.5148 -73.5110 184° South 387 445 36,000  Level FlightAware ADS-B
Thu 11:31:14 AM 45.5060 -73.5120 185° South 388 447 36,000  Level FlightAware ADS-B
Thu 11:31:49 AM 45.4450 -73.5190 185° South 385 443 36,000  Level FlightAware ADS-B
Thu 11:31:58 AM 45.4289 -73.5203 185° South 383 441 36,000  Level FlightAware ADS-B
Thu 11:32:27 AM 45.3780 -73.5260 185° South 382 440 36,000  Level FlightAware ADS-B
Thu 11:32:28 AM 45.3750 -73.5263 184° South 381 438 36,000  Level FlightAware ADS-B
Thu 11:32:51 AM 45.3350 -73.5310 185° South 381 438 36,000  Level FlightAware ADS-B
Thu 11:33:10 AM 45.3028 -73.5342 185° South 380 437 36,000  Level FlightAware ADS-B
Thu 11:33:32 AM 45.2630 -73.5390 185° South 380 437 36,000  Level FlightAware ADS-B
Thu 11:33:43 AM 45.2462 -73.5406 185° South 379 436 36,000  Level FlightAware ADS-B (EPGD / GDN)
Thu 11:34:08 AM 45.2040 -73.5450 185° South 379 436 36,000  Level FlightAware ADS-B
Thu 11:34:21 AM 45.1783 -73.5481 184° South 378 435 36,000  Level FlightAware ADS-B (EPGD / GDN)
Thu 11:34:44 AM 45.1380 -73.5530 185° South 379 436 36,000  Level FlightAware ADS-B
Thu 11:34:53 AM 45.1222 -73.5542 184° South 377 434 36,000  Level FlightAware ADS-B
Thu 11:35:20 AM 45.0770 -73.5590 185° South 377 434 36,000  Level FlightAware ADS-B
Thu 11:35:27 AM 45.0633 -73.5606 184° South 377 434 36,000  Level FlightAware ADS-B
Thu 11:35:51 AM 45.0230 -73.5650 185° South 379 436 36,000  Level FlightAware ADS-B
Thu 11:36:01 AM 45.0048 -73.5670 184° South 378 435 36,000  Level FlightAware ADS-B
Thu 11:36:25 AM 44.9630 -73.5720 185° South 379 436 36,000  Level FlightAware ADS-B
Thu 11:36:31 AM 44.9551 -73.5724 184° South 377 434 36,000  Level FlightAware ADS-B
Thu 11:36:56 AM 44.9090 -73.5770 185° South 378 435 36,000  Level FlightAware ADS-B
Thu 11:37:10 AM 44.8888 -73.5795 184° South 377 434 36,000  Level FlightAware ADS-B (EPGD / GDN)
Thu 11:37:32 AM 44.8550 -73.5830 185° South 378 435 36,000  Level FlightAware ADS-B
Thu 11:37:40 AM 44.8319 -73.5856 184° South 377 434 36,000  Level FlightAware ADS-B (KBTV)
Thu 11:38:02 AM 44.7940 -73.5900 185° South 379 436 36,000  Level FlightAware ADS-B
Thu 11:38:21 AM 44.7657 -73.5929 184° South 378 435 36,000  Level FlightAware ADS-B (KBTV)
Thu 11:38:38 AM 44.7320 -73.5960 185° South 380 437 36,000  Level FlightAware ADS-B
Thu 11:38:56 AM 44.7047 -73.5994 184° South 379 436 36,000  Level FlightAware ADS-B
Thu 11:39:10 AM 44.6770 -73.6020 185° South 381 438 36,000  Level FlightAware ADS-B
Thu 11:39:34 AM 44.6349 -73.6069 184° South 381 438 36,000  Level FlightAware ADS-B (EPGD / GDN)
Thu 11:40:02 AM 44.5850 -73.6120 185° South 382 440 36,000  Level FlightAware ADS-B
Thu 11:40:05 AM 44.5802 -73.6128 184° South 381 438 36,000  Level FlightAware ADS-B
Thu 11:40:32 AM 44.5320 -73.6180 185° South 380 437 36,000  Level FlightAware ADS-B
Thu 11:41:07 AM 44.4896 -73.6225 184° South 379 436 36,000  Level FlightAware ADS-B
Thu 11:41:08 AM 44.4700 -73.6250 185° South 380 437 36,000  Level FlightAware ADS-B
Thu 11:41:38 AM 44.4163 -73.6303 184° South 379 436 36,000  Level FlightAware ADS-B
Thu 11:41:39 AM 44.4150 -73.6300 185° South 380 437 36,000  Level FlightAware ADS-B
Thu 11:42:04 AM 44.3710 -73.6350 185° South 380 437 36,000  Level FlightAware ADS-B
Thu 11:42:15 AM 44.4208 -73.6298 184° South 379 436 36,000  Level FlightAware ADS-B (KBTV)
Thu 11:42:43 AM 44.3040 -73.6420 185° South 381 438 36,000  Level FlightAware ADS-B
Thu 11:42:49 AM 44.2919 -73.6434 184° South 380 437 36,000  Level FlightAware ADS-B
Thu 11:43:17 AM 44.2440 -73.6480 185° South 380 437 36,000  Level FlightAware ADS-B
Thu 11:43:31 AM 44.2223 -73.6509 184° South 379 436 36,000  Level FlightAware ADS-B (EPGD / GDN)
Thu 11:43:48 AM 44.1950 -73.6540 185° South 379 436 36,000  Level FlightAware ADS-B
Thu 11:44:09 AM 44.1548 -73.6580 184° South 377 434 36,000  Level FlightAware ADS-B (EPGD / GDN)
Thu 11:44:24 AM 44.1270 -73.6610 185° South 378 435 36,000  Level FlightAware ADS-B
Thu 11:44:50 AM 44.0823 -73.6656 184° South 376 433 36,000  Level FlightAware ADS-B (EPGD / GDN)
Thu 11:45:24 AM 44.0238 -73.6718 184° South 376 433 36,000  Level FlightAware ADS-B
Thu 11:46:15 AM 43.9364 -73.6809 184° South 376 433 36,000  Level FlightAware ADS-B
Thu 11:46:47 AM 43.8803 -73.6868 184° South 375 432 36,000  Level FlightAware ADS-B
Thu 11:47:30 AM 43.8056 -73.6946 184° South 375 432 36,000  Level FlightAware ADS-B
Thu 11:47:48 AM 43.7770 -73.6980 185° South 376 433 36,000  Level FlightAware ADS-B
Thu 11:48:11 AM 43.7365 -73.7018 184° South 375 432 36,000  Level FlightAware ADS-B
Thu 11:48:53 AM 43.6617 -73.7094 184° South 373 429 36,000  Level FlightAware ADS-B
Thu 11:49:23 AM 43.6120 -73.7147 184° South 372 428 36,000  Level FlightAware ADS-B
Thu 11:49:57 AM 43.5515 -73.7211 184° South 370 426 36,000  Level FlightAware ADS-B
Thu 11:50:28 AM 43.4990 -73.7265 184° South 369 425 36,000  Level FlightAware ADS-B
Thu 11:51:07 AM 43.4328 -73.7333 184° South 368 423 36,000  Level FlightAware ADS-B
Thu 11:51:37 AM 43.3813 -73.7387 184° South 367 422 36,000  Level FlightAware ADS-B
Thu 11:52:08 AM 43.3316 -73.7437 184° South 367 422 36,000  Level FlightAware ADS-B
Thu 11:52:40 AM 43.2766 -73.7494 184° South 366 421 36,000  Level FlightAware ADS-B
Thu 11:53:18 AM 43.2150 -73.7557 184° South 365 420 36,000  Level FlightAware ADS-B
Thu 11:54:05 AM 43.1333 -73.7640 184° South 365 420 36,000  Level FlightAware ADS-B
Thu 11:54:44 AM 43.0668 -73.7708 184° South 363 418 36,000  Level FlightAware ADS-B
Thu 11:55:27 AM 42.9975 -73.7778 184° South 364 419 36,000  Level FlightAware ADS-B
Thu 11:56:05 AM 42.9308 -73.7846 184° South 364 419 36,000  Level FlightAware ADS-B
Thu 11:59:11 AM 42.6256 -73.8580 184° South 366 421 36,000  Level FlightAware ADS-B (KWWD)
Thu 11:59:24 AM 42.6070 -73.8663 198° South 354 407 36,000  Level FlightAware ADS-B (KWWD)
Thu 12:00:32 PM 42.5013 -73.9136 198° South 354 407 36,000  Level FlightAware ADS-B (KWWD)
Thu 12:01:28 PM 42.4145 -73.9522 198° South 353 406 36,000  Level FlightAware ADS-B (KWWD)
Thu 12:04:33 PM 42.1269 -74.0769 198° South 353 406 36,000  Level FlightAware ADS-B (KWWD)
Thu 12:05:15 PM 42.0611 -74.1052 198° South 356 410 36,000  Level FlightAware ADS-B (KWWD)
Thu 12:05:54 PM 42.0002 -74.1312 198° South 357 411 36,000 -357 Level FlightAware ADS-B (KWWD)
Thu 12:06:39 PM 41.9297 -74.1613 198° South 356 410 35,500 -723 Descending FlightAware ADS-B (KWWD)
Thu 12:07:17 PM 41.8761 -74.1841 198° South 358 412 35,000 -918 Descending FlightAware ADS-B (KSNC)
Thu 12:08:04 PM 41.7983 -74.2172 198° South 362 417 34,200 -1,037 Descending FlightAware ADS-B (KSNC)
Thu 12:08:38 PM 41.7444 -74.2401 198° South 365 420 33,600 -1,040 Descending FlightAware ADS-B (KSNC)
Thu 12:09:19 PM 41.6812 -74.2668 198° South 371 427 32,900 -1,030 Descending FlightAware ADS-B (KSNC)
Thu 12:10:17 PM 41.5792 -74.3098 198° South 371 427 31,900 -970 Descending FlightAware ADS-B (KWWD)
Thu 12:10:58 PM 41.5150 -74.3369 198° South 370 426 31,300 -930 Descending FlightAware ADS-B (KSNC)
Thu 12:11:28 PM 41.4659 -74.3576 198° South 369 425 30,800 -1,065 Descending FlightAware ADS-B (KSNC)
Thu 12:12:00 PM 41.4128 -74.3799 198° South 369 425 30,200 -1,105 Descending FlightAware ADS-B (KSNC)
Thu 12:12:06 PM 41.3994 -74.3855 197° South 371 427 30,100 -811 Descending FlightAware ADS-B (KWWD)
Thu 12:12:37 PM 41.3554 -74.4039 198° South 369 425 29,700 -952 Descending FlightAware ADS-B (KWWD)
Thu 12:13:09 PM 41.3026 -74.4261 197° South 384 442 29,100 -1,077 Descending FlightAware ADS-B (KSNC)
Thu 12:13:55 PM 41.2177 -74.4615 198° South 387 445 28,300 -1,176 Descending FlightAware ADS-B (KWWD)
Thu 12:14:00 PM 41.2112 -74.4642 197° South 389 448 28,100 -429 Descending FlightAware ADS-B (KSNC)
Thu 12:14:37 PM 41.1465 -74.4910 197° South 389 448 28,000 -57 Descending FlightAware ADS-B (KWWD)
Thu 12:15:46 PM 41.0332 -74.5428 209° Southwest 367 422 28,000  Level FlightAware ADS-B (KWWD)
Thu 12:16:06 PM 41.0061 -74.5688 225° Southwest 371 427 28,000  Level FlightAware ADS-B (KSNC)
Thu 12:16:44 PM 40.9670 -74.6419 237° Southwest 378 435 28,000  Level FlightAware ADS-B (KWWD)
Thu 12:17:37 PM 40.9156 -74.7446 237° Southwest 379 436 28,000  Level FlightAware ADS-B (KWWD)
Thu 12:17:43 PM 40.9117 -74.7523 237° Southwest 379 436 28,000  Level FlightAware ADS-B (KSNC)
Thu 12:18:14 PM 40.8806 -74.8140 236° Southwest 378 435 28,000 -568 Level FlightAware ADS-B (KWWD)
Thu 12:18:57 PM 40.8392 -74.8960 236° Southwest 375 432 27,300 -940 Descending FlightAware ADS-B (KWWD)
Thu 12:19:37 PM 40.8003 -74.9731 236° Southwest 379 436 26,700 -986 Descending FlightAware ADS-B (KWWD)
Thu 12:20:10 PM 40.7705 -75.0321 236° Southwest 384 442 26,100 -1,063 Descending FlightAware ADS-B (KPHL)
Thu 12:20:56 PM 40.7234 -75.1251 236° Southwest 377 434 25,300 -1,013 Descending FlightAware ADS-B (KWWD)
Thu 12:21:27 PM 40.6935 -75.1840 236° Southwest 375 432 24,800 -950 Descending FlightAware ADS-B (KWWD)
Thu 12:22:37 PM 40.6304 -75.3077 237° Southwest 329 379 23,700 -960 Descending FlightAware ADS-B (KWWD)
Thu 12:23:07 PM 40.6037 -75.3600 236° Southwest 323 372 23,200 -1,000 Descending FlightAware ADS-B (KWWD)
Thu 12:24:25 PM 40.5395 -75.4853 236° Southwest 321 369 21,900 -1,027 Descending FlightAware ADS-B (KWWD)
Thu 12:24:58 PM 40.5127 -75.5374 236° Southwest 323 372 21,300 -952 Descending FlightAware ADS-B (KWWD)
Thu 12:25:28 PM 40.4913 -75.5791 236° Southwest 321 369 20,900 -1,000 Descending FlightAware ADS-B (KWWD)
Thu 12:25:58 PM 40.4619 -75.6360 237° Southwest 325 374 20,300 -1,067 Descending FlightAware ADS-B (KWWD)
Thu 12:26:13 PM 40.4515 -75.6562 237° Southwest 325 374 20,100 -375 Descending FlightAware ADS-B (KWWD)
Thu 12:26:46 PM 40.4209 -75.7152 237° Southwest 322 371 20,000 -94 Descending FlightAware ADS-B (KWWD)
Thu 12:27:17 PM 40.3943 -75.7665 237° Southwest 322 371 20,000  Level FlightAware ADS-B (KWWD)
Thu 12:28:06 PM 40.3525 -75.8472 237° Southwest 322 371 20,000  Level FlightAware ADS-B (KWWD)
Thu 12:28:37 PM 40.3271 -75.8959 237° Southwest 322 371 20,000  Level FlightAware ADS-B (KWWD)
Thu 12:29:12 PM 40.2979 -75.9519 236° Southwest 328 377 20,000  Level FlightAware ADS-B (KPHL)
Thu 12:30:07 PM 40.2492 -76.0451 237° Southwest 325 374 20,000 -383 Level FlightAware ADS-B (KWWD)
Thu 12:30:46 PM 40.2163 -76.1082 237° Southwest 324 373 19,400 -986 Descending FlightAware ADS-B (KWWD)
Thu 12:31:20 PM 40.1869 -76.1642 237° Southwest 322 371 18,800 -1,043 Descending FlightAware ADS-B (KWWD)
Thu 12:31:55 PM 40.1573 -76.2206 236° Southwest 323 372 18,200 -943 Descending FlightAware ADS-B (KWWD)
Thu 12:32:30 PM 40.1278 -76.2765 237° Southwest 318 366 17,700 -973 Descending FlightAware ADS-B (KWWD)
Thu 12:33:09 PM 40.0969 -76.3414 239° Southwest 322 371 17,000 -1,000 Descending FlightAware ADS-B (KWWD)
Thu 12:33:42 PM 40.0760 -76.3868 239° Southwest 320 368 16,500 -973 Descending FlightAware ADS-B
Thu 12:34:23 PM 40.0467 -76.4502 239° Southwest 318 366 15,800 -1,000 Descending FlightAware ADS-B
Thu 12:35:00 PM 40.0129 -76.5230 239° Southwest 315 362 15,200 -500 Descending FlightAware ADS-B (KWWD)
Thu 12:36:11 PM 39.9601 -76.6367 239° Southwest 315 362 14,900 -178 Descending FlightAware ADS-B (KWWD)
Thu 12:36:41 PM 39.9369 -76.6867 239° Southwest 315 362 14,900  Level FlightAware ADS-B (KWWD)
Thu 12:37:16 PM 39.9107 -76.7430 239° Southwest 315 362 14,900  Level FlightAware ADS-B (KWWD)
Thu 12:38:01 PM 39.8841 -76.7998 239° Southwest 315 362 14,900  Level FlightAware ADS-B
Thu 12:38:31 PM 39.8537 -76.8648 239° Southwest 315 362 14,900  Level FlightAware ADS-B (KWWD)
Thu 12:39:01 PM 39.8314 -76.9125 239° Southwest 314 361 14,900  Level FlightAware ADS-B (KWWD)
Thu 12:39:52 PM 39.7935 -76.9930 239° Southwest 315 362 14,900 -847 Level FlightAware ADS-B (KWWD)
Thu 12:40:26 PM 39.7661 -77.0515 240° Southwest 320 368 13,700 -1,941 Descending FlightAware ADS-B (KWWD)
Thu 12:41:00 PM 39.7410 -77.1045 238° Southwest 321 369 12,700 -1,610 Descending FlightAware ADS-B
Thu 12:41:07 PM 39.7358 -77.1156 239° Southwest 320 368 12,600 -1,421 Descending FlightAware ADS-B (KJYO)
Thu 12:41:38 PM 39.7121 -77.1657 239° Southwest 314 361 11,800 -1,455 Descending FlightAware ADS-B (KJYO)
Thu 12:41:40 PM 39.7326 -77.1225 238° Southwest 318 366 11,800 -1,161 Level FlightAware ADS-B
Thu 12:42:09 PM 39.6936 -77.2048 239° Southwest 312 359 11,200 -1,600 Descending FlightAware ADS-B (KJYO)
Thu 12:42:10 PM 39.6869 -77.2188 238° Southwest 311 358 11,000 -1,622 Descending FlightAware ADS-B (KWWD)
Thu 12:42:46 PM 39.6607 -77.2742 239° Southwest 308 354 10,200 -1,317 Descending FlightAware ADS-B (KJYO)
Thu 12:42:51 PM 39.6557 -77.2849 238° Southwest 308 354 10,100 -462 Descending FlightAware ADS-B (KWWD)
Thu 12:43:12 PM 39.6406 -77.3156 238° Southwest 298 343 10,000 -343 Descending FlightAware ADS-B (KWWD)
Thu 12:43:26 PM 39.6273 -77.3312 210° Southwest 283 326 9,900 -800 Descending FlightAware ADS-B (KWWD)
Thu 12:43:42 PM 39.6047 -77.3397 186° South 292 336 9,600 -1,125 Descending FlightAware ADS-B (KWWD)
Thu 12:43:58 PM 39.5867 -77.3413 185° South 289 333 9,300 -1,143 Descending FlightAware ADS-B (KJYO)
Thu 12:44:03 PM 39.5800 -77.3420 185° South 279 321 9,200 -857 Descending FlightAware ADS-B (KWWD)
Thu 12:44:19 PM 39.5649 -77.3436 185° South 288 331 9,000 -1,200 Descending FlightAware ADS-B (KJYO)
Thu 12:44:33 PM 39.5415 -77.3456 184° South 282 325 8,600 -1,667 Descending FlightAware ADS-B (KJYO)
Thu 12:44:37 PM 39.5331 -77.3464 186° South 273 314 8,500 -1,200 Descending FlightAware ADS-B (KWWD)
Thu 12:44:48 PM 39.5202 -77.3481 187° South 280 322 8,300 -1,111 Descending FlightAware ADS-B (KJYO)
Thu 12:45:04 PM 39.5019 -77.3507 187° South 280 322 8,000 -1,034 Descending FlightAware ADS-B (KJYO)
Thu 12:45:17 PM 39.4825 -77.3534 187° South 279 321 7,800 -1,034 Descending FlightAware ADS-B (KJYO)
Thu 12:45:33 PM 39.4636 -77.3560 187° South 277 319 7,500 -1,200 Descending FlightAware ADS-B (KJYO)
Thu 12:45:47 PM 39.4465 -77.3585 187° South 277 319 7,200 -1,313 Descending FlightAware ADS-B (KJYO)
Thu 12:46:05 PM 39.4217 -77.3620 187° South 277 319 6,800 -1,167 Descending FlightAware ADS-B (KJYO)
Thu 12:46:23 PM 39.3986 -77.3636 178° South 279 321 6,500 -682 Descending FlightAware ADS-B (KJYO)
Thu 12:46:49 PM 39.3665 -77.3624 178° South 273 314 6,300 -769 Descending FlightAware ADS-B (KJYO)
Thu 12:47:02 PM 39.3502 -77.3620 179° South 276 318 6,000 -1,200 Descending FlightAware ADS-B (KJYO)
Thu 12:47:19 PM 39.3271 -77.3615 178° South 275 316 5,700 -968 Descending FlightAware ADS-B (KJYO)
Thu 12:47:33 PM 39.3090 -77.3611 178° South 277 319 5,500 -1,034 Descending FlightAware ADS-B (KJYO)
Thu 12:47:48 PM 39.2895 -77.3606 178° South 282 325 5,200 -1,050 Descending FlightAware ADS-B (KJYO)
Thu 12:48:13 PM 39.2584 -77.3599 178° South 277 319 4,800 -878 Descending FlightAware ADS-B (KJYO)
Thu 12:48:29 PM 39.2407 -77.3594 178° South 275 316 4,600 -750 Descending FlightAware ADS-B (KJYO)
Thu 12:48:53 PM 39.2058 -77.3586 178° South 275 316 4,300 -563 Descending FlightAware ADS-B (KJYO)
Thu 12:49:33 PM 39.1565 -77.3573 178° South 259 298 4,000 -320 Descending FlightAware ADS-B (KJYO)
Thu 12:50:08 PM 39.1171 -77.3571 178° South 259 298 3,900 -111 Descending FlightAware ADS-B (KJYO)
Thu 12:50:27 PM 39.0963 -77.3574 182° South 233 268 3,900  Level FlightAware ADS-B (KJYO)
Thu 12:50:43 PM 39.0793 -77.3577 180° South 232 267 3,900  Level FlightAware ADS-B (KJYO)
Thu 12:50:54 PM 39.0681 -77.3576 178° South 227 261 3,900  Level FlightAware ADS-B (KJYO)
Thu 12:51:12 PM 39.0625 -77.3575 179° South 227 261 3,900  Level FlightAware ADS-B (KJYO)
Thu 12:51:52 PM 39.0073 -77.3572 180° South 233 268 3,900  Level FlightAware ADS-B (KDAA)
Thu 12:52:04 PM 39.0045 -77.3572 181° South 235 270 3,900  Level FlightAware ADS-B (KJYO)
Thu 12:52:13 PM 38.9887 -77.3572 181° South 236 272 3,900  Level FlightAware ADS-B (KJYO)
Thu 12:52:32 PM 38.9613 -77.3572 179° South 235 270 3,900  Level FlightAware ADS-B (KDAA)
Thu 12:52:48 PM 38.9453 -77.3571 179° South 238 274 3,900  Level FlightAware ADS-B (KDAA)
Thu 12:53:07 PM 38.9239 -77.3569 179° South 235 270 3,900  Level FlightAware ADS-B (KDAA)
Thu 12:53:27 PM 38.9038 -77.3568 180° South 233 268 3,900  Level FlightAware ADS-B (KDAA)
Thu 12:53:48 PM 38.8795 -77.3572 182° South 237 273 3,900  Level FlightAware ADS-B (KDAA)
Thu 12:54:07 PM 38.8578 -77.3577 181° South 235 270 3,900  Level FlightAware ADS-B (KDAA)
Thu 12:54:27 PM 38.8357 -77.3582 181° South 239 275 3,900  Level FlightAware ADS-B (KDAA)
Thu 12:54:47 PM 38.8142 -77.3588 182° South 234 269 3,900  Level FlightAware ADS-B (KDAA)
Thu 12:55:07 PM 38.7927 -77.3594 182° South 237 273 3,900  Level FlightAware ADS-B (KDAA)
Thu 12:55:27 PM 38.7717 -77.3599 181° South 236 272 3,900  Level FlightAware ADS-B (KDAA)
Thu 12:55:42 PM 38.7544 -77.3609 191° South 235 270 3,900  Level FlightAware ADS-B (KDAA)
Thu 12:55:46 PM 38.7496 -77.3626 201° Southwest 232 267 3,900  Level FlightAware ADS-B
Thu 12:55:47 PM 38.7480 -77.3634 201° Southwest 232 267 3,900  Level FlightAware ADS-B (KDAA)
Thu 12:55:52 PM 38.7449 -77.3654 212° Southwest 228 262 3,900 -600 Level FlightAware ADS-B (KDAA)
Thu 12:55:57 PM 38.7402 -77.3699 221° Southwest 226 260 3,800 -600 Descending FlightAware ADS-B (KDAA)
Thu 12:56:02 PM 38.7372 -77.3739 234° Southwest 222 255 3,800 -545 Level FlightAware ADS-B (KDAA)
Thu 12:56:08 PM 38.7340 -77.3806 244° Southwest 218 251 3,700 -600 Descending FlightAware ADS-B (KDAA)
Thu 12:56:12 PM 38.7322 -77.3868 249° West 216 249 3,700 -667 Level FlightAware ADS-B (KDAA)
Thu 12:56:17 PM 38.7309 -77.3922 255° West 214 246 3,600 -480 Descending FlightAware ADS-B (KDAA)
Thu 12:56:37 PM 38.7265 -77.4175 259° West 203 234 3,500 -387 Descending FlightAware ADS-B (KDAA)
Thu 12:56:48 PM 38.7248 -77.4290 262° West 196 226 3,400 -800 Descending FlightAware ADS-B
Thu 12:56:52 PM 38.7247 -77.4340 271° West 193 222 3,300 -667 Descending FlightAware ADS-B (KDAA)
Thu 12:56:57 PM 38.7251 -77.4385 280° West 190 219 3,300 -545 Level FlightAware ADS-B (KDAA)
Thu 12:57:03 PM 38.7268 -77.4443 296° West 186 214 3,200 -1,200 Descending FlightAware ADS-B (KDAA)
Thu 12:57:07 PM 38.7292 -77.4487 310° West 184 212 3,100 -1,200 Descending FlightAware ADS-B (KDAA)
Thu 12:57:08 PM 38.7296 -77.4493 311° West 184 212 3,100  Level FlightAware ADS-B
Thu 12:57:12 PM 38.7323 -77.4526 319° Northwest 182 209 3,100 -667 Level FlightAware ADS-B (KDAA)
Thu 12:57:17 PM 38.7357 -77.4557 325° Northwest 180 207 3,000 -545 Descending FlightAware ADS-B (KDAA)
Thu 12:57:23 PM 38.7399 -77.4587 335° Northwest 178 205 3,000 -600 Level FlightAware ADS-B (KDAA)
Thu 12:57:27 PM 38.7433 -77.4602 345° North 176 203 2,900 -667 Descending FlightAware ADS-B (KDAA)
Thu 12:57:32 PM 38.7474 -77.4612 350° North 177 204 2,900  Level FlightAware ADS-B (KDAA)
Thu 12:57:37 PM 38.7508 -77.4617 356° North 179 206 2,900  Level FlightAware ADS-B (KDAA)
Thu 12:57:47 PM 38.7607 -77.4619 North 180 207 2,900  Level FlightAware ADS-B (KDAA)
Thu 12:58:07 PM 38.7760 -77.4618 North 182 209 2,900  Level FlightAware ADS-B (KDAA)
Thu 12:58:08 PM 38.7774 -77.4618 360° North 183 211 2,900  Level FlightAware ADS-B
Thu 12:58:27 PM 38.7910 -77.4616 North 167 192 2,900  Level FlightAware ADS-B (KDAA)
Thu 12:58:28 PM 38.7938 -77.4616 360° North 167 192 2,900 -375 Level FlightAware ADS-B
Thu 12:58:43 PM 38.8042 -77.4615 North 168 193 2,800 -632 Descending FlightAware ADS-B (KDAA)
Thu 12:58:47 PM 38.8079 -77.4615 360° North 169 194 2,700 -1,286 Descending FlightAware ADS-B
Thu 12:58:57 PM 38.8162 -77.4614 North 174 200 2,500 -1,263 Descending FlightAware ADS-B (KDAA)
Thu 12:59:06 PM 38.8232 -77.4613 North 177 204 2,300 -1,125 Descending FlightAware ADS-B
Thu 12:59:13 PM 38.8284 -77.4612 North 177 204 2,200 -857 Descending FlightAware ADS-B (KDAA)
Thu 12:59:27 PM 38.8394 -77.4611 North 168 193 2,000 -828 Descending FlightAware ADS-B (KDAA)
Thu 12:59:42 PM 38.8523 -77.4609 North 168 193 1,800 -706 Descending FlightAware ADS-B (KDAA)
Thu 01:00:01 PM 38.8603 -77.4608 North 153 176 1,600 -769 Descending FlightAware ADS-B (KDAA)
Thu 01:00:21 PM 38.8782 -77.4606 North 137 158 1,300 -655 Descending FlightAware ADS-B (KDAA)
Thu 01:00:56 PM 38.9000 -77.4667 North 138 159 1,000 -514 Descending Potomac TRACON

Login

Don't have an account? Register now (free) for customized features, flight alerts, and more!